sensor_id;sensor_type;location;lat;lon;timestamp;P1;P2;P0
70436;PMS5003;57877;39.750;-104.894;2022-09-21T00:00:03;0;0;
70436;PMS5003;57877;39.750;-104.894;2022-09-21T00:02:28;0;0;
70436;PMS5003;57877;39.750;-104.894;2022-09-21T00:04:53;0;0;
70436;PMS5003;57877;39.750;-104.894;2022-09-21T00:07:18;0;0;
70436;PMS5003;57877;39.750;-104.894;2022-09-21T00:09:43;0;0;
70436;PMS5003;57877;39.750;-104.894;2022-09-21T00:12:08;0;0;
70436;PMS5003;57877;39.750;-104.894;2022-09-21T00:14:33;0;0;
70436;PMS5003;57877;39.750;-104.894;2022-09-21T00:16:59;0;0;
70436;PMS5003;57877;39.750;-104.894;2022-09-21T00:19:23;0;0;
70436;PMS5003;57877;39.750;-104.894;2022-09-21T00:21:48;0;0;
70436;PMS5003;57877;39.750;-104.894;2022-09-21T00:24:13;0;0;
70436;PMS5003;57877;39.750;-104.894;2022-09-21T00:26:39;0;0;
70436;PMS5003;57877;39.750;-104.894;2022-09-21T00:29:04;0;0;
70436;PMS5003;57877;39.750;-104.894;2022-09-21T00:31:29;0;0;
70436;PMS5003;57877;39.750;-104.894;2022-09-21T00:33:54;0;0;
70436;PMS5003;57877;39.750;-104.894;2022-09-21T00:36:20;0;0;
70436;PMS5003;57877;39.750;-104.894;2022-09-21T00:38:44;0;0;
70436;PMS5003;57877;39.750;-104.894;2022-09-21T00:41:09;0;0;
70436;PMS5003;57877;39.750;-104.894;2022-09-21T00:43:34;0;0;
70436;PMS5003;57877;39.750;-104.894;2022-09-21T00:46:00;0;0;
70436;PMS5003;57877;39.750;-104.894;2022-09-21T00:48:25;0;0;
70436;PMS5003;57877;39.750;-104.894;2022-09-21T00:50:51;0;0;
70436;PMS5003;57877;39.750;-104.894;2022-09-21T00:53:15;0;0;
70436;PMS5003;57877;39.750;-104.894;2022-09-21T00:55:41;0;0;
70436;PMS5003;57877;39.750;-104.894;2022-09-21T00:58:05;0;0;
70436;PMS5003;57877;39.750;-104.894;2022-09-21T01:00:30;0;0;
70436;PMS5003;57877;39.750;-104.894;2022-09-21T01:02:55;0;0;
70436;PMS5003;57877;39.750;-104.894;2022-09-21T01:05:21;0;0;
70436;PMS5003;57877;39.750;-104.894;2022-09-21T01:07:47;0;0;
70436;PMS5003;57877;39.750;-104.894;2022-09-21T01:10:11;0;0;
70436;PMS5003;57877;39.750;-104.894;2022-09-21T01:12:44;0;0;
70436;PMS5003;57877;39.750;-104.894;2022-09-21T01:15:06;0;0;
70436;PMS5003;57877;39.750;-104.894;2022-09-21T01:17:29;0;0;
70436;PMS5003;57877;39.750;-104.894;2022-09-21T01:19:58;0;0;
70436;PMS5003;57877;39.750;-104.894;2022-09-21T01:22:17;0;0;
70436;PMS5003;57877;39.750;-104.894;2022-09-21T01:24:47;0;0;
70436;PMS5003;57877;39.750;-104.894;2022-09-21T01:27:14;0;0;
70436;PMS5003;57877;39.750;-104.894;2022-09-21T01:29:32;0;0;
70436;PMS5003;57877;39.750;-104.894;2022-09-21T01:31:58;0;0;
70436;PMS5003;57877;39.750;-104.894;2022-09-21T01:34:24;0;0;
70436;PMS5003;57877;39.750;-104.894;2022-09-21T01:36:47;0;0;
70436;PMS5003;57877;39.750;-104.894;2022-09-21T01:39:12;0;0;
70436;PMS5003;57877;39.750;-104.894;2022-09-21T01:41:38;0;0;
70436;PMS5003;57877;39.750;-104.894;2022-09-21T01:44:05;0;0;
70436;PMS5003;57877;39.750;-104.894;2022-09-21T01:46:30;0;0;
70436;PMS5003;57877;39.750;-104.894;2022-09-21T01:48:57;0;0;
70436;PMS5003;57877;39.750;-104.894;2022-09-21T01:51:20;0;0;
70436;PMS5003;57877;39.750;-104.894;2022-09-21T01:53:46;0;0;
70436;PMS5003;57877;39.750;-104.894;2022-09-21T01:56:12;0;0;
70436;PMS5003;57877;39.750;-104.894;2022-09-21T01:58:38;0;0;
70436;PMS5003;57877;39.750;-104.894;2022-09-21T02:01:01;0;0;
70436;PMS5003;57877;39.750;-104.894;2022-09-21T02:03:28;0;0;
70436;PMS5003;57877;39.750;-104.894;2022-09-21T02:05:54;0;0;
70436;PMS5003;57877;39.750;-104.894;2022-09-21T02:08:19;0;0;
70436;PMS5003;57877;39.750;-104.894;2022-09-21T02:10:47;0;0;
70436;PMS5003;57877;39.750;-104.894;2022-09-21T02:13:12;0;0;
70436;PMS5003;57877;39.750;-104.894;2022-09-21T02:15:42;0;0;
70436;PMS5003;57877;39.750;-104.894;2022-09-21T02:18:04;0;0;
70436;PMS5003;57877;39.750;-104.894;2022-09-21T02:20:30;0;0;
70436;PMS5003;57877;39.750;-104.894;2022-09-21T02:22:58;0;0;
70436;PMS5003;57877;39.750;-104.894;2022-09-21T02:25:24;0;0;
70436;PMS5003;57877;39.750;-104.894;2022-09-21T02:27:49;0;0;
70436;PMS5003;57877;39.750;-104.894;2022-09-21T02:30:14;0;0;
70436;PMS5003;57877;39.750;-104.894;2022-09-21T02:32:42;0;0;
70436;PMS5003;57877;39.750;-104.894;2022-09-21T02:35:06;0;0;
70436;PMS5003;57877;39.750;-104.894;2022-09-21T02:37:33;0;0;
70436;PMS5003;57877;39.750;-104.894;2022-09-21T02:39:58;0;0;
70436;PMS5003;57877;39.750;-104.894;2022-09-21T02:42:24;0;0;
70436;PMS5003;57877;39.750;-104.894;2022-09-21T02:44:50;0;0;
70436;PMS5003;57877;39.750;-104.894;2022-09-21T02:47:17;0;0;
70436;PMS5003;57877;39.750;-104.894;2022-09-21T02:49:42;0;0;
70436;PMS5003;57877;39.750;-104.894;2022-09-21T02:52:08;0;0;
70436;PMS5003;57877;39.750;-104.894;2022-09-21T02:54:32;0;0;
70436;PMS5003;57877;39.750;-104.894;2022-09-21T02:56:57;0;0;
70436;PMS5003;57877;39.750;-104.894;2022-09-21T02:59:22;0;0;
70436;PMS5003;57877;39.750;-104.894;2022-09-21T03:01:47;0;0;
70436;PMS5003;57877;39.750;-104.894;2022-09-21T03:04:12;0;0;
70436;PMS5003;57877;39.750;-104.894;2022-09-21T03:06:38;0;0;
70436;PMS5003;57877;39.750;-104.894;2022-09-21T03:09:04;0;0;
70436;PMS5003;57877;39.750;-104.894;2022-09-21T03:11:29;0;0;
70436;PMS5003;57877;39.750;-104.894;2022-09-21T03:13:55;0;0;
70436;PMS5003;57877;39.750;-104.894;2022-09-21T03:16:21;0;0;
70436;PMS5003;57877;39.750;-104.894;2022-09-21T03:18:47;0;0;
70436;PMS5003;57877;39.750;-104.894;2022-09-21T03:21:13;0;0;
70436;PMS5003;57877;39.750;-104.894;2022-09-21T03:23:39;0;0;
70436;PMS5003;57877;39.750;-104.894;2022-09-21T03:26:05;0;0;
70436;PMS5003;57877;39.750;-104.894;2022-09-21T03:28:31;0;0;
70436;PMS5003;57877;39.750;-104.894;2022-09-21T03:30:56;0;0;
70436;PMS5003;57877;39.750;-104.894;2022-09-21T03:33:21;0;0;
70436;PMS5003;57877;39.750;-104.894;2022-09-21T03:35:47;0;0;
70436;PMS5003;57877;39.750;-104.894;2022-09-21T03:38:11;0;0;
70436;PMS5003;57877;39.750;-104.894;2022-09-21T03:40:36;0;0;
70436;PMS5003;57877;39.750;-104.894;2022-09-21T03:43:02;0;0;
70436;PMS5003;57877;39.750;-104.894;2022-09-21T03:45:26;0;0;
70436;PMS5003;57877;39.750;-104.894;2022-09-21T03:47:53;0;0;
70436;PMS5003;57877;39.750;-104.894;2022-09-21T03:50:17;0;0;
70436;PMS5003;57877;39.750;-104.894;2022-09-21T03:52:43;0;0;
70436;PMS5003;57877;39.750;-104.894;2022-09-21T03:55:08;0;0;
70436;PMS5003;57877;39.750;-104.894;2022-09-21T03:57:33;0;0;
70436;PMS5003;57877;39.750;-104.894;2022-09-21T03:59:58;0;0;
70436;PMS5003;57877;39.750;-104.894;2022-09-21T04:02:23;0;0;
70436;PMS5003;57877;39.750;-104.894;2022-09-21T04:04:48;0;0;
70436;PMS5003;57877;39.750;-104.894;2022-09-21T04:07:13;0;0;
70436;PMS5003;57877;39.750;-104.894;2022-09-21T04:09:38;0;0;
70436;PMS5003;57877;39.750;-104.894;2022-09-21T04:12:03;0;0;
70436;PMS5003;57877;39.750;-104.894;2022-09-21T04:14:28;0;0;
70436;PMS5003;57877;39.750;-104.894;2022-09-21T04:16:53;0;0;
70436;PMS5003;57877;39.750;-104.894;2022-09-21T04:19:18;0;0;
70436;PMS5003;57877;39.750;-104.894;2022-09-21T04:21:43;0;0;
70436;PMS5003;57877;39.750;-104.894;2022-09-21T04:24:08;0;0;
70436;PMS5003;57877;39.750;-104.894;2022-09-21T04:26:33;0;0;
70436;PMS5003;57877;39.750;-104.894;2022-09-21T04:28:58;0;0;
70436;PMS5003;57877;39.750;-104.894;2022-09-21T04:31:23;0;0;
70436;PMS5003;57877;39.750;-104.894;2022-09-21T04:33:48;0;0;
70436;PMS5003;57877;39.750;-104.894;2022-09-21T04:36:13;0;0;
70436;PMS5003;57877;39.750;-104.894;2022-09-21T04:38:38;0;0;
70436;PMS5003;57877;39.750;-104.894;2022-09-21T04:41:04;0;0;
70436;PMS5003;57877;39.750;-104.894;2022-09-21T04:43:30;0;0;
70436;PMS5003;57877;39.750;-104.894;2022-09-21T04:45:56;0;0;
70436;PMS5003;57877;39.750;-104.894;2022-09-21T04:48:22;0;0;
70436;PMS5003;57877;39.750;-104.894;2022-09-21T04:50:48;0;0;
70436;PMS5003;57877;39.750;-104.894;2022-09-21T04:53:14;0;0;
70436;PMS5003;57877;39.750;-104.894;2022-09-21T04:55:40;0;0;
70436;PMS5003;57877;39.750;-104.894;2022-09-21T04:58:04;0;0;
70436;PMS5003;57877;39.750;-104.894;2022-09-21T05:00:30;0;0;
70436;PMS5003;57877;39.750;-104.894;2022-09-21T05:02:54;0;0;
70436;PMS5003;57877;39.750;-104.894;2022-09-21T05:05:19;0;0;
70436;PMS5003;57877;39.750;-104.894;2022-09-21T05:07:44;0;0;
70436;PMS5003;57877;39.750;-104.894;2022-09-21T05:10:10;0;0;
70436;PMS5003;57877;39.750;-104.894;2022-09-21T05:12:34;0;0;
70436;PMS5003;57877;39.750;-104.894;2022-09-21T05:14:59;0;0;
70436;PMS5003;57877;39.750;-104.894;2022-09-21T05:17:24;0;0;
70436;PMS5003;57877;39.750;-104.894;2022-09-21T05:19:50;0;0;
70436;PMS5003;57877;39.750;-104.894;2022-09-21T05:22:14;1;0;
70436;PMS5003;57877;39.750;-104.894;2022-09-21T05:24:39;0;0;
70436;PMS5003;57877;39.750;-104.894;2022-09-21T05:27:05;0;0;
70436;PMS5003;57877;39.750;-104.894;2022-09-21T05:29:30;0;0;
70436;PMS5003;57877;39.750;-104.894;2022-09-21T05:31:56;0;0;
70436;PMS5003;57877;39.750;-104.894;2022-09-21T05:36:47;0;0;
70436;PMS5003;57877;39.750;-104.894;2022-09-21T05:39:10;0;0;
70436;PMS5003;57877;39.750;-104.894;2022-09-21T05:41:35;0;0;
70436;PMS5003;57877;39.750;-104.894;2022-09-21T05:44:00;1;1;
70436;PMS5003;57877;39.750;-104.894;2022-09-21T05:46:29;1;1;
70436;PMS5003;57877;39.750;-104.894;2022-09-21T05:48:51;0;0;
70436;PMS5003;57877;39.750;-104.894;2022-09-21T05:51:17;0;0;
70436;PMS5003;57877;39.750;-104.894;2022-09-21T05:53:44;0;0;
70436;PMS5003;57877;39.750;-104.894;2022-09-21T05:56:07;0;0;
70436;PMS5003;57877;39.750;-104.894;2022-09-21T05:58:32;0;0;
70436;PMS5003;57877;39.750;-104.894;2022-09-21T06:01:00;0;0;
70436;PMS5003;57877;39.750;-104.894;2022-09-21T06:03:24;0;0;
70436;PMS5003;57877;39.750;-104.894;2022-09-21T06:05:45;0;0;
70436;PMS5003;57877;39.750;-104.894;2022-09-21T06:08:11;1;0;
70436;PMS5003;57877;39.750;-104.894;2022-09-21T06:10:37;0;0;
70436;PMS5003;57877;39.750;-104.894;2022-09-21T06:13:02;0;0;
70436;PMS5003;57877;39.750;-104.894;2022-09-21T06:15:27;0;0;
70436;PMS5003;57877;39.750;-104.894;2022-09-21T06:17:52;0;0;
70436;PMS5003;57877;39.750;-104.894;2022-09-21T06:20:17;0;0;
70436;PMS5003;57877;39.750;-104.894;2022-09-21T06:22:42;0;0;
70436;PMS5003;57877;39.750;-104.894;2022-09-21T06:25:07;0;0;
70436;PMS5003;57877;39.750;-104.894;2022-09-21T06:27:33;0;0;
70436;PMS5003;57877;39.750;-104.894;2022-09-21T06:29:59;0;0;
70436;PMS5003;57877;39.750;-104.894;2022-09-21T06:32:24;0;0;
70436;PMS5003;57877;39.750;-104.894;2022-09-21T06:34:51;0;0;
70436;PMS5003;57877;39.750;-104.894;2022-09-21T06:37:15;0;0;
70436;PMS5003;57877;39.750;-104.894;2022-09-21T06:39:41;0;0;
70436;PMS5003;57877;39.750;-104.894;2022-09-21T06:42:06;0;0;
70436;PMS5003;57877;39.750;-104.894;2022-09-21T06:44:31;0;0;
70436;PMS5003;57877;39.750;-104.894;2022-09-21T06:46:56;0;0;
70436;PMS5003;57877;39.750;-104.894;2022-09-21T06:49:21;0;0;
70436;PMS5003;57877;39.750;-104.894;2022-09-21T06:51:46;0;0;
70436;PMS5003;57877;39.750;-104.894;2022-09-21T06:54:11;0;0;
70436;PMS5003;57877;39.750;-104.894;2022-09-21T06:56:36;0;0;
70436;PMS5003;57877;39.750;-104.894;2022-09-21T06:59:02;0;0;
70436;PMS5003;57877;39.750;-104.894;2022-09-21T07:01:28;1;0;
70436;PMS5003;57877;39.750;-104.894;2022-09-21T07:03:53;0;0;
70436;PMS5003;57877;39.750;-104.894;2022-09-21T07:06:18;0;0;
70436;PMS5003;57877;39.750;-104.894;2022-09-21T07:08:43;0;0;
70436;PMS5003;57877;39.750;-104.894;2022-09-21T07:11:08;0;0;
70436;PMS5003;57877;39.750;-104.894;2022-09-21T07:13:33;0;0;
70436;PMS5003;57877;39.750;-104.894;2022-09-21T07:16:01;0;0;
70436;PMS5003;57877;39.750;-104.894;2022-09-21T07:18:23;0;0;
70436;PMS5003;57877;39.750;-104.894;2022-09-21T07:20:48;0;0;
70436;PMS5003;57877;39.750;-104.894;2022-09-21T07:23:15;0;0;
70436;PMS5003;57877;39.750;-104.894;2022-09-21T07:25:39;0;0;
70436;PMS5003;57877;39.750;-104.894;2022-09-21T07:28:05;0;0;
70436;PMS5003;57877;39.750;-104.894;2022-09-21T07:30:30;1;1;
70436;PMS5003;57877;39.750;-104.894;2022-09-21T07:32:56;1;1;
70436;PMS5003;57877;39.750;-104.894;2022-09-21T07:35:22;0;0;
70436;PMS5003;57877;39.750;-104.894;2022-09-21T07:37:47;0;0;
70436;PMS5003;57877;39.750;-104.894;2022-09-21T07:40:12;0;0;
70436;PMS5003;57877;39.750;-104.894;2022-09-21T07:42:37;0;0;
70436;PMS5003;57877;39.750;-104.894;2022-09-21T07:45:02;0;0;
70436;PMS5003;57877;39.750;-104.894;2022-09-21T07:47:27;0;0;
70436;PMS5003;57877;39.750;-104.894;2022-09-21T07:49:52;2;1;
70436;PMS5003;57877;39.750;-104.894;2022-09-21T07:52:17;1;1;
70436;PMS5003;57877;39.750;-104.894;2022-09-21T07:54:42;1;0;
70436;PMS5003;57877;39.750;-104.894;2022-09-21T07:57:07;0;0;
70436;PMS5003;57877;39.750;-104.894;2022-09-21T07:59:32;0;0;
70436;PMS5003;57877;39.750;-104.894;2022-09-21T08:01:58;0;0;
70436;PMS5003;57877;39.750;-104.894;2022-09-21T08:04:24;3;2;
70436;PMS5003;57877;39.750;-104.894;2022-09-21T08:06:49;1;1;
70436;PMS5003;57877;39.750;-104.894;2022-09-21T08:09:14;1;0;
70436;PMS5003;57877;39.750;-104.894;2022-09-21T08:11:39;1;1;
70436;PMS5003;57877;39.750;-104.894;2022-09-21T08:14:04;0;0;
70436;PMS5003;57877;39.750;-104.894;2022-09-21T08:16:31;1;0;
70436;PMS5003;57877;39.750;-104.894;2022-09-21T08:18:56;0;0;
70436;PMS5003;57877;39.750;-104.894;2022-09-21T08:21:22;0;0;
70436;PMS5003;57877;39.750;-104.894;2022-09-21T08:23:48;0;0;
70436;PMS5003;57877;39.750;-104.894;2022-09-21T08:26:15;0;0;
70436;PMS5003;57877;39.750;-104.894;2022-09-21T08:28:38;0;0;
70436;PMS5003;57877;39.750;-104.894;2022-09-21T08:31:06;0;0;
70436;PMS5003;57877;39.750;-104.894;2022-09-21T08:33:30;0;0;
70436;PMS5003;57877;39.750;-104.894;2022-09-21T08:35:55;0;0;
70436;PMS5003;57877;39.750;-104.894;2022-09-21T08:38:21;0;0;
70436;PMS5003;57877;39.750;-104.894;2022-09-21T08:40:46;0;0;
70436;PMS5003;57877;39.750;-104.894;2022-09-21T08:43:11;0;0;
70436;PMS5003;57877;39.750;-104.894;2022-09-21T08:45:38;1;1;
70436;PMS5003;57877;39.750;-104.894;2022-09-21T08:48:03;0;0;
70436;PMS5003;57877;39.750;-104.894;2022-09-21T08:50:30;0;0;
70436;PMS5003;57877;39.750;-104.894;2022-09-21T08:52:56;0;0;
70436;PMS5003;57877;39.750;-104.894;2022-09-21T08:55:19;0;0;
70436;PMS5003;57877;39.750;-104.894;2022-09-21T08:57:44;2;2;
70436;PMS5003;57877;39.750;-104.894;2022-09-21T09:00:12;0;0;
70436;PMS5003;57877;39.750;-104.894;2022-09-21T09:02:37;0;0;
70436;PMS5003;57877;39.750;-104.894;2022-09-21T09:05:03;1;1;
70436;PMS5003;57877;39.750;-104.894;2022-09-21T09:07:31;0;0;
70436;PMS5003;57877;39.750;-104.894;2022-09-21T09:09:57;0;0;
70436;PMS5003;57877;39.750;-104.894;2022-09-21T09:12:22;1;1;
70436;PMS5003;57877;39.750;-104.894;2022-09-21T09:14:51;0;0;
70436;PMS5003;57877;39.750;-104.894;2022-09-21T09:19:34;0;0;
70436;PMS5003;57877;39.750;-104.894;2022-09-21T09:21:58;2;1;
70436;PMS5003;57877;39.750;-104.894;2022-09-21T09:24:28;0;0;
70436;PMS5003;57877;39.750;-104.894;2022-09-21T09:26:49;2;2;
70436;PMS5003;57877;39.750;-104.894;2022-09-21T09:29:15;0;0;
70436;PMS5003;57877;39.750;-104.894;2022-09-21T09:31:38;1;1;
70436;PMS5003;57877;39.750;-104.894;2022-09-21T09:34:08;1;0;
70436;PMS5003;57877;39.750;-104.894;2022-09-21T09:36:29;1;1;
70436;PMS5003;57877;39.750;-104.894;2022-09-21T09:38:54;0;0;
70436;PMS5003;57877;39.750;-104.894;2022-09-21T09:41:23;3;2;
70436;PMS5003;57877;39.750;-104.894;2022-09-21T09:43:47;0;0;
70436;PMS5003;57877;39.750;-104.894;2022-09-21T09:46:10;2;2;
70436;PMS5003;57877;39.750;-104.894;2022-09-21T09:48:37;0;0;
70436;PMS5003;57877;39.750;-104.894;2022-09-21T09:50:58;2;2;
70436;PMS5003;57877;39.750;-104.894;2022-09-21T09:53:24;2;1;
70436;PMS5003;57877;39.750;-104.894;2022-09-21T09:55:49;3;2;
70436;PMS5003;57877;39.750;-104.894;2022-09-21T09:58:16;0;0;
70436;PMS5003;57877;39.750;-104.894;2022-09-21T10:00:38;1;0;
70436;PMS5003;57877;39.750;-104.894;2022-09-21T10:03:06;3;3;
70436;PMS5003;57877;39.750;-104.894;2022-09-21T10:05:31;2;2;
70436;PMS5003;57877;39.750;-104.894;2022-09-21T10:07:53;2;0;
70436;PMS5003;57877;39.750;-104.894;2022-09-21T10:10:22;1;1;
70436;PMS5003;57877;39.750;-104.894;2022-09-21T10:12:45;2;1;
70436;PMS5003;57877;39.750;-104.894;2022-09-21T10:15:09;1;0;
70436;PMS5003;57877;39.750;-104.894;2022-09-21T10:17:34;1;0;
70436;PMS5003;57877;39.750;-104.894;2022-09-21T10:20:00;1;1;
70436;PMS5003;57877;39.750;-104.894;2022-09-21T10:22:25;1;1;
70436;PMS5003;57877;39.750;-104.894;2022-09-21T10:24:50;2;2;
70436;PMS5003;57877;39.750;-104.894;2022-09-21T10:27:15;2;2;
70436;PMS5003;57877;39.750;-104.894;2022-09-21T10:29:40;1;1;
70436;PMS5003;57877;39.750;-104.894;2022-09-21T10:32:15;0;0;
70436;PMS5003;57877;39.750;-104.894;2022-09-21T10:34:30;2;2;
70436;PMS5003;57877;39.750;-104.894;2022-09-21T10:36:55;2;1;
70436;PMS5003;57877;39.750;-104.894;2022-09-21T10:39:21;0;0;
70436;PMS5003;57877;39.750;-104.894;2022-09-21T10:41:50;3;2;
70436;PMS5003;57877;39.750;-104.894;2022-09-21T10:44:11;2;2;
70436;PMS5003;57877;39.750;-104.894;2022-09-21T10:46:35;1;1;
70436;PMS5003;57877;39.750;-104.894;2022-09-21T10:49:00;3;3;
70436;PMS5003;57877;39.750;-104.894;2022-09-21T10:51:26;3;3;
70436;PMS5003;57877;39.750;-104.894;2022-09-21T10:53:50;4;3;
70436;PMS5003;57877;39.750;-104.894;2022-09-21T10:56:15;4;4;
70436;PMS5003;57877;39.750;-104.894;2022-09-21T10:59:08;2;2;
70436;PMS5003;57877;39.750;-104.894;2022-09-21T11:01:10;1;1;
70436;PMS5003;57877;39.750;-104.894;2022-09-21T11:03:36;2;2;
70436;PMS5003;57877;39.750;-104.894;2022-09-21T11:06:00;3;2;
70436;PMS5003;57877;39.750;-104.894;2022-09-21T11:08:27;3;3;
70436;PMS5003;57877;39.750;-104.894;2022-09-21T11:10:52;0;0;
70436;PMS5003;57877;39.750;-104.894;2022-09-21T11:13:19;4;4;
70436;PMS5003;57877;39.750;-104.894;2022-09-21T11:15:43;3;2;
70436;PMS5003;57877;39.750;-104.894;2022-09-21T11:18:08;2;2;
70436;PMS5003;57877;39.750;-104.894;2022-09-21T11:20:34;1;1;
70436;PMS5003;57877;39.750;-104.894;2022-09-21T11:23:01;3;3;
70436;PMS5003;57877;39.750;-104.894;2022-09-21T11:25:25;4;4;
70436;PMS5003;57877;39.750;-104.894;2022-09-21T11:27:49;3;3;
70436;PMS5003;57877;39.750;-104.894;2022-09-21T11:30:13;1;1;
70436;PMS5003;57877;39.750;-104.894;2022-09-21T11:32:43;2;2;
70436;PMS5003;57877;39.750;-104.894;2022-09-21T11:35:07;4;3;
70436;PMS5003;57877;39.750;-104.894;2022-09-21T11:37:33;2;2;
70436;PMS5003;57877;39.750;-104.894;2022-09-21T11:39:58;0;0;
70436;PMS5003;57877;39.750;-104.894;2022-09-21T11:42:23;1;0;
70436;PMS5003;57877;39.750;-104.894;2022-09-21T11:44:46;0;0;
70436;PMS5003;57877;39.750;-104.894;2022-09-21T11:47:13;3;3;
70436;PMS5003;57877;39.750;-104.894;2022-09-21T11:49:39;0;0;
70436;PMS5003;57877;39.750;-104.894;2022-09-21T11:52:04;1;1;
70436;PMS5003;57877;39.750;-104.894;2022-09-21T11:54:33;1;1;
70436;PMS5003;57877;39.750;-104.894;2022-09-21T11:56:51;3;3;
70436;PMS5003;57877;39.750;-104.894;2022-09-21T11:59:21;1;1;
70436;PMS5003;57877;39.750;-104.894;2022-09-21T12:01:44;2;2;
70436;PMS5003;57877;39.750;-104.894;2022-09-21T12:06:36;2;2;
70436;PMS5003;57877;39.750;-104.894;2022-09-21T12:11:25;0;0;
70436;PMS5003;57877;39.750;-104.894;2022-09-21T12:13:49;3;3;
70436;PMS5003;57877;39.750;-104.894;2022-09-21T12:16:14;3;3;
70436;PMS5003;57877;39.750;-104.894;2022-09-21T12:18:39;2;2;
70436;PMS5003;57877;39.750;-104.894;2022-09-21T12:21:05;3;3;
70436;PMS5003;57877;39.750;-104.894;2022-09-21T12:23:31;4;3;
70436;PMS5003;57877;39.750;-104.894;2022-09-21T12:25:55;2;2;
70436;PMS5003;57877;39.750;-104.894;2022-09-21T12:28:19;3;3;
70436;PMS5003;57877;39.750;-104.894;2022-09-21T12:30:44;1;1;
70436;PMS5003;57877;39.750;-104.894;2022-09-21T12:33:11;2;2;
70436;PMS5003;57877;39.750;-104.894;2022-09-21T12:35:33;2;2;
70436;PMS5003;57877;39.750;-104.894;2022-09-21T12:38:00;3;3;
70436;PMS5003;57877;39.750;-104.894;2022-09-21T12:40:26;2;2;
70436;PMS5003;57877;39.750;-104.894;2022-09-21T12:42:49;2;1;
70436;PMS5003;57877;39.750;-104.894;2022-09-21T12:45:15;3;2;
70436;PMS5003;57877;39.750;-104.894;2022-09-21T12:47:43;2;2;
70436;PMS5003;57877;39.750;-104.894;2022-09-21T12:50:04;4;4;
70436;PMS5003;57877;39.750;-104.894;2022-09-21T12:52:28;2;2;
70436;PMS5003;57877;39.750;-104.894;2022-09-21T12:54:57;2;2;
70436;PMS5003;57877;39.750;-104.894;2022-09-21T12:57:21;1;1;
70436;PMS5003;57877;39.750;-104.894;2022-09-21T12:59:47;3;3;
70436;PMS5003;57877;39.750;-104.894;2022-09-21T13:02:13;3;3;
70436;PMS5003;57877;39.750;-104.894;2022-09-21T13:04:36;3;3;
70436;PMS5003;57877;39.750;-104.894;2022-09-21T13:07:05;3;3;
70436;PMS5003;57877;39.750;-104.894;2022-09-21T13:09:24;2;2;
70436;PMS5003;57877;39.750;-104.894;2022-09-21T13:11:51;5;4;
70436;PMS5003;57877;39.750;-104.894;2022-09-21T13:14:14;4;2;
70436;PMS5003;57877;39.750;-104.894;2022-09-21T13:16:39;5;5;
70436;PMS5003;57877;39.750;-104.894;2022-09-21T13:19:14;5;5;
70436;PMS5003;57877;39.750;-104.894;2022-09-21T13:21:31;5;3;
70436;PMS5003;57877;39.750;-104.894;2022-09-21T13:23:57;3;3;
70436;PMS5003;57877;39.750;-104.894;2022-09-21T13:33:37;4;4;
70436;PMS5003;57877;39.750;-104.894;2022-09-21T13:36:03;5;5;
70436;PMS5003;57877;39.750;-104.894;2022-09-21T13:38:27;4;3;
70436;PMS5003;57877;39.750;-104.894;2022-09-21T13:43:19;2;2;
70436;PMS5003;57877;39.750;-104.894;2022-09-21T13:45:49;5;4;
70436;PMS5003;57877;39.750;-104.894;2022-09-21T13:48:11;4;4;
70436;PMS5003;57877;39.750;-104.894;2022-09-21T13:50:37;4;4;
70436;PMS5003;57877;39.750;-104.894;2022-09-21T13:52:58;4;4;
70436;PMS5003;57877;39.750;-104.894;2022-09-21T13:55:23;3;3;
70436;PMS5003;57877;39.750;-104.894;2022-09-21T13:57:48;3;2;
70436;PMS5003;57877;39.750;-104.894;2022-09-21T14:02:37;4;4;
70436;PMS5003;57877;39.750;-104.894;2022-09-21T14:05:03;5;5;
70436;PMS5003;57877;39.750;-104.894;2022-09-21T14:07:28;3;3;
70436;PMS5003;57877;39.750;-104.894;2022-09-21T14:09:53;5;4;
70436;PMS5003;57877;39.750;-104.894;2022-09-21T14:12:18;5;5;
70436;PMS5003;57877;39.750;-104.894;2022-09-21T14:14:42;4;4;
70436;PMS5003;57877;39.750;-104.894;2022-09-21T14:24:22;4;4;
70436;PMS5003;57877;39.750;-104.894;2022-09-21T14:29:14;4;4;
70436;PMS5003;57877;39.750;-104.894;2022-09-21T14:31:37;2;2;
70436;PMS5003;57877;39.750;-104.894;2022-09-21T14:34:03;4;4;
70436;PMS5003;57877;39.750;-104.894;2022-09-21T14:36:30;4;3;
70436;PMS5003;57877;39.750;-104.894;2022-09-21T14:38:54;4;4;
70436;PMS5003;57877;39.750;-104.894;2022-09-21T14:41:18;4;4;
70436;PMS5003;57877;39.750;-104.894;2022-09-21T14:43:43;5;4;
70436;PMS5003;57877;39.750;-104.894;2022-09-21T14:46:12;4;3;
70436;PMS5003;57877;39.750;-104.894;2022-09-21T14:48:35;3;3;
70436;PMS5003;57877;39.750;-104.894;2022-09-21T14:51:00;4;4;
70436;PMS5003;57877;39.750;-104.894;2022-09-21T14:53:29;6;4;
70436;PMS5003;57877;39.750;-104.894;2022-09-21T14:55:54;4;3;
70436;PMS5003;57877;39.750;-104.894;2022-09-21T14:58:18;5;3;
70436;PMS5003;57877;39.750;-104.894;2022-09-21T15:00:39;5;4;
70436;PMS5003;57877;39.750;-104.894;2022-09-21T15:03:16;5;4;
70436;PMS5003;57877;39.750;-104.894;2022-09-21T15:05:29;5;5;
70436;PMS5003;57877;39.750;-104.894;2022-09-21T15:07:58;3;3;
70436;PMS5003;57877;39.750;-104.894;2022-09-21T15:10:23;8;6;
70436;PMS5003;57877;39.750;-104.894;2022-09-21T15:12:46;4;3;
70436;PMS5003;57877;39.750;-104.894;2022-09-21T15:15:16;5;5;
70436;PMS5003;57877;39.750;-104.894;2022-09-21T15:17:34;4;4;
70436;PMS5003;57877;39.750;-104.894;2022-09-21T15:20:01;3;3;
70436;PMS5003;57877;39.750;-104.894;2022-09-21T15:22:24;5;4;
70436;PMS5003;57877;39.750;-104.894;2022-09-21T15:24:50;4;3;
70436;PMS5003;57877;39.750;-104.894;2022-09-21T15:27:15;4;4;
70436;PMS5003;57877;39.750;-104.894;2022-09-21T15:29:41;7;7;
70436;PMS5003;57877;39.750;-104.894;2022-09-21T15:32:04;6;5;
70436;PMS5003;57877;39.750;-104.894;2022-09-21T15:34:30;6;6;
70436;PMS5003;57877;39.750;-104.894;2022-09-21T15:39:21;6;6;
70436;PMS5003;57877;39.750;-104.894;2022-09-21T15:41:46;3;3;
70436;PMS5003;57877;39.750;-104.894;2022-09-21T15:44:11;5;4;
70436;PMS5003;57877;39.750;-104.894;2022-09-21T15:46:36;7;5;
70436;PMS5003;57877;39.750;-104.894;2022-09-21T15:49:01;6;6;
70436;PMS5003;57877;39.750;-104.894;2022-09-21T15:51:30;6;5;
70436;PMS5003;57877;39.750;-104.894;2022-09-21T15:53:51;6;6;
70436;PMS5003;57877;39.750;-104.894;2022-09-21T15:56:17;8;6;
70436;PMS5003;57877;39.750;-104.894;2022-09-21T15:58:41;4;4;
70436;PMS5003;57877;39.750;-104.894;2022-09-21T16:01:08;6;6;
70436;PMS5003;57877;39.750;-104.894;2022-09-21T16:03:31;6;6;
70436;PMS5003;57877;39.750;-104.894;2022-09-21T16:05:56;5;5;
70436;PMS5003;57877;39.750;-104.894;2022-09-21T16:10:46;6;6;
70436;PMS5003;57877;39.750;-104.894;2022-09-21T16:13:12;8;7;
70436;PMS5003;57877;39.750;-104.894;2022-09-21T16:15:37;5;5;
70436;PMS5003;57877;39.750;-104.894;2022-09-21T16:18:02;6;6;
70436;PMS5003;57877;39.750;-104.894;2022-09-21T16:22:52;4;4;
70436;PMS5003;57877;39.750;-104.894;2022-09-21T16:25:21;4;4;